Lisbon, New Hampshire
Current Conditions -  °F | °C
As of 10:52 AM on Sunday 23 Nov 2014 (Local Time) from KHIE Reporting Station
Overcast Overcast  
Wind Chill: 42°   Ceiling: 2000
Heat Index: 42°   Visibility: 10mi
Dew Point: 38°   Wind: 3mph
Humidity: 85%   Direction: 250°WSW
Pressure: 30.05"   Gusts: NA
Location:  44.21°N, 71.9°W
Report Text: KHIE 231552Z AUTO 25003KT 10SM OVC020 06/03 A3005 RMK AO2 SLP186 T00560033
Loading
Personal Weather Stations






























Interactive Weather Map New forecast layout! Learn more

10-Day Weather Forecast

Advertisements
Track Severe Weather on mobile